createdAt,value
2022-08-03T00:00:26.330Z,25.29
2022-08-03T00:02:53.693Z,25.29
2022-08-03T00:05:20.846Z,25.27
2022-08-03T00:07:48.442Z,25.27
2022-08-03T00:10:16.631Z,25.26
2022-08-03T00:12:43.680Z,25.26
2022-08-03T00:15:15.178Z,25.25
2022-08-03T00:17:52.414Z,25.24
2022-08-03T00:20:20.903Z,25.23
2022-08-03T00:22:47.941Z,25.23
2022-08-03T00:25:14.979Z,25.23
2022-08-03T00:27:42.025Z,25.22
2022-08-03T00:30:09.121Z,25.21
2022-08-03T00:32:36.224Z,25.19
2022-08-03T00:35:08.421Z,25.19
2022-08-03T00:37:41.271Z,25.17
2022-08-03T00:40:08.955Z,25.17
2022-08-03T00:42:36.005Z,25.17
2022-08-03T00:45:03.049Z,25.15
2022-08-03T00:47:30.101Z,25.15
2022-08-03T00:49:57.177Z,25.15
2022-08-03T00:52:24.223Z,25.13
2022-08-03T00:54:51.263Z,25.13
2022-08-03T00:57:18.333Z,25.13
2022-08-03T00:59:45.452Z,25.12
2022-08-03T01:02:12.484Z,25.12
2022-08-03T01:04:39.532Z,25.10
2022-08-03T01:07:10.961Z,25.10
2022-08-03T01:09:38.283Z,25.09
2022-08-03T01:12:05.315Z,25.09
2022-08-03T01:14:32.359Z,25.07
2022-08-03T01:17:00.862Z,25.07
2022-08-03T01:19:27.902Z,25.06
2022-08-03T01:21:54.953Z,25.06
2022-08-03T01:24:22.212Z,25.05
2022-08-03T01:26:49.249Z,25.05
2022-08-03T01:29:16.286Z,25.04
2022-08-03T01:32:53.268Z,25.02
2022-08-03T01:34:30.361Z,25.01
2022-08-03T01:36:57.403Z,25.01
2022-08-03T01:39:24.475Z,25.00
2022-08-03T01:41:51.518Z,25.00
2022-08-03T01:44:29.112Z,24.97
2022-08-03T01:46:57.723Z,24.97
2022-08-03T01:49:24.796Z,24.96
2022-08-03T01:52:03.429Z,24.95
2022-08-03T01:54:32.225Z,24.95
2022-08-03T01:56:59.286Z,24.94
2022-08-03T01:59:26.393Z,24.93
2022-08-03T02:02:16.041Z,24.92
2022-08-03T02:04:40.564Z,24.91
2022-08-03T02:07:07.627Z,24.90
2022-08-03T02:09:34.682Z,24.90
2022-08-03T02:12:01.910Z,24.89
2022-08-03T02:14:28.958Z,24.88
2022-08-03T02:16:56.012Z,24.88
2022-08-03T02:19:23.102Z,24.87
2022-08-03T02:21:57.172Z,24.86
2022-08-03T02:24:28.504Z,24.86
2022-08-03T02:26:56.901Z,24.85
2022-08-03T02:29:40.109Z,24.85
2022-08-03T02:32:08.499Z,24.83
2022-08-03T02:34:35.565Z,24.83
2022-08-03T02:37:03.267Z,24.83
2022-08-03T02:39:30.327Z,24.81
2022-08-03T02:42:02.247Z,24.81
2022-08-03T02:44:30.402Z,24.80
2022-08-03T02:46:57.435Z,24.79
2022-08-03T02:49:42.138Z,24.78
2022-08-03T02:52:13.204Z,24.78
2022-08-03T02:54:42.987Z,24.77
2022-08-03T02:57:10.079Z,24.77
2022-08-03T02:59:37.142Z,24.76
2022-08-03T03:02:04.242Z,24.76
2022-08-03T03:04:33.179Z,24.76
2022-08-03T03:07:01.859Z,24.74
2022-08-03T03:09:40.427Z,24.73
2022-08-03T03:12:08.644Z,24.73
2022-08-03T03:14:35.690Z,24.73
2022-08-03T03:17:02.836Z,24.72
2022-08-03T03:19:30.458Z,24.71
2022-08-03T03:21:57.519Z,24.69
2022-08-03T03:24:24.591Z,24.68
2022-08-03T03:26:51.634Z,24.67
2022-08-03T03:29:18.724Z,24.66
2022-08-03T03:31:45.769Z,24.66
2022-08-03T03:34:12.813Z,24.65
2022-08-03T03:36:39.861Z,24.63
2022-08-03T03:39:15.904Z,24.63
2022-08-03T03:41:43.215Z,24.62
2022-08-03T03:44:10.267Z,24.61
2022-08-03T03:46:37.299Z,24.61
2022-08-03T03:49:04.349Z,24.60
2022-08-03T03:51:31.512Z,24.60
2022-08-03T03:53:58.554Z,24.59
2022-08-03T03:56:25.649Z,24.58
2022-08-03T03:58:52.675Z,24.58
2022-08-03T04:01:19.800Z,24.57
2022-08-03T04:03:46.874Z,24.57
2022-08-03T04:06:32.699Z,24.56
2022-08-03T04:09:23.034Z,24.54
2022-08-03T04:11:50.111Z,24.54
2022-08-03T04:14:17.170Z,24.53
2022-08-03T04:16:44.333Z,24.53
2022-08-03T04:19:11.385Z,24.52
2022-08-03T04:21:38.481Z,24.51
2022-08-03T04:24:06.062Z,24.49
2022-08-03T04:26:33.139Z,24.50
2022-08-03T04:29:00.951Z,24.49
2022-08-03T04:31:27.998Z,24.49
2022-08-03T04:33:55.050Z,24.47
2022-08-03T04:36:22.103Z,24.47
2022-08-03T04:38:49.146Z,24.46
2022-08-03T04:41:16.186Z,24.45
2022-08-03T04:43:43.341Z,24.45
2022-08-03T04:46:10.420Z,24.45
2022-08-03T04:48:37.532Z,24.43
2022-08-03T04:51:04.653Z,24.43
2022-08-03T04:53:31.736Z,24.42
2022-08-03T04:55:58.805Z,24.42
2022-08-03T04:58:28.618Z,24.41
2022-08-03T05:01:11.047Z,24.40
2022-08-03T05:03:38.178Z,24.40
2022-08-03T05:06:10.968Z,24.40
2022-08-03T05:08:46.286Z,24.40
2022-08-03T05:11:14.291Z,24.39
2022-08-03T05:13:41.354Z,24.39
2022-08-03T05:16:08.434Z,24.38
2022-08-03T05:18:35.990Z,24.38
2022-08-03T05:21:03.137Z,24.37
2022-08-03T05:23:30.184Z,24.37
2022-08-03T05:25:57.260Z,24.36
2022-08-03T05:28:24.366Z,24.35
2022-08-03T05:30:51.411Z,24.36
2022-08-03T05:33:18.450Z,24.36
2022-08-03T05:35:55.667Z,24.34
2022-08-03T05:38:34.592Z,24.34
2022-08-03T05:41:22.856Z,24.34
2022-08-03T05:43:49.346Z,24.33
2022-08-03T05:46:16.533Z,24.33
2022-08-03T05:48:43.602Z,24.33
2022-08-03T05:51:13.746Z,24.33
2022-08-03T05:53:40.876Z,24.32
2022-08-03T05:56:14.220Z,24.33
2022-08-03T05:58:42.580Z,24.32
2022-08-03T06:01:09.716Z,24.31
2022-08-03T06:03:36.797Z,24.30
2022-08-03T06:06:03.914Z,24.32
2022-08-03T06:08:31.059Z,24.32
2022-08-03T06:10:58.109Z,24.31
2022-08-03T06:13:25.215Z,24.30
2022-08-03T06:15:52.299Z,24.32
2022-08-03T06:18:19.596Z,24.30
2022-08-03T06:20:47.205Z,24.30
2022-08-03T06:23:18.078Z,24.31
2022-08-03T06:25:45.886Z,24.30
2022-08-03T06:28:42.387Z,24.31
2022-08-03T06:31:01.417Z,24.31
2022-08-03T06:34:30.166Z,24.32
2022-08-03T06:36:15.832Z,24.32
2022-08-03T06:38:42.876Z,24.34
2022-08-03T06:41:09.926Z,24.34
2022-08-03T06:43:38.151Z,24.35
2022-08-03T06:46:24.830Z,24.36
2022-08-03T06:48:53.401Z,24.36
2022-08-03T06:51:20.484Z,24.36
2022-08-03T06:53:47.535Z,24.38
2022-08-03T06:56:14.647Z,24.39
2022-08-03T06:58:41.706Z,24.39
2022-08-03T07:01:08.862Z,24.41
2022-08-03T07:03:36.171Z,24.41
2022-08-03T07:06:19.127Z,24.43
2022-08-03T07:08:48.522Z,24.43
2022-08-03T07:11:18.583Z,24.44
2022-08-03T07:13:45.659Z,24.45
2022-08-03T07:16:12.733Z,24.46
2022-08-03T07:18:39.883Z,24.47
2022-08-03T07:21:09.184Z,24.51
2022-08-03T07:23:36.239Z,24.51
2022-08-03T07:26:03.327Z,24.52
2022-08-03T07:28:30.379Z,24.53
2022-08-03T07:30:57.408Z,24.54
2022-08-03T07:33:24.458Z,24.57
2022-08-03T07:35:51.502Z,24.59
2022-08-03T07:38:21.090Z,24.60
2022-08-03T07:40:48.379Z,24.74
2022-08-03T07:43:15.493Z,24.81
2022-08-03T07:45:42.551Z,24.87
2022-08-03T07:48:12.350Z,24.90
2022-08-03T07:50:39.803Z,24.94
2022-08-03T07:53:06.880Z,24.99
2022-08-03T07:55:35.158Z,25.02
2022-08-03T07:58:02.305Z,25.07
2022-08-03T08:00:29.357Z,25.10
2022-08-03T08:02:56.426Z,25.13
2022-08-03T08:05:23.483Z,25.16
2022-08-03T08:07:50.738Z,25.19
2022-08-03T08:10:18.928Z,25.22
2022-08-03T08:12:46.117Z,25.26
2022-08-03T08:15:13.191Z,25.27
2022-08-03T08:17:40.235Z,25.30
2022-08-03T08:20:07.276Z,25.33
2022-08-03T08:22:36.038Z,25.35
2022-08-03T08:25:04.579Z,25.38
2022-08-03T08:28:29.417Z,25.39
2022-08-03T08:30:21.895Z,25.43
2022-08-03T08:32:49.032Z,25.44
2022-08-03T08:35:16.157Z,25.46
2022-08-03T08:37:43.494Z,25.46
2022-08-03T08:40:18.258Z,25.48
2022-08-03T08:42:57.955Z,25.51
2022-08-03T08:45:25.685Z,25.52
2022-08-03T08:47:55.706Z,25.53
2022-08-03T08:50:27.884Z,25.54
2022-08-03T08:52:55.423Z,25.56
2022-08-03T08:55:22.518Z,25.57
2022-08-03T08:57:49.675Z,25.58
2022-08-03T09:00:17.157Z,25.59
2022-08-03T09:02:44.422Z,25.59
2022-08-03T09:05:13.088Z,25.63
2022-08-03T09:07:40.275Z,25.68
2022-08-03T09:10:12.959Z,25.70
2022-08-03T09:12:42.340Z,25.71
2022-08-03T09:15:17.027Z,25.73
2022-08-03T09:17:48.871Z,25.77
2022-08-03T09:20:17.904Z,25.81
2022-08-03T09:22:44.970Z,25.85
2022-08-03T09:25:24.362Z,25.86
2022-08-03T09:27:51.932Z,25.90
2022-08-03T09:30:34.611Z,25.91
2022-08-03T09:33:02.577Z,25.91
2022-08-03T09:35:53.653Z,25.94
2022-08-03T09:38:16.742Z,25.97
2022-08-03T09:40:43.799Z,25.98
2022-08-03T09:43:10.914Z,26.02
2022-08-03T09:45:37.985Z,26.04
2022-08-03T09:48:05.068Z,26.04
2022-08-03T09:50:32.138Z,26.07
2022-08-03T09:52:59.207Z,26.07
2022-08-03T09:56:34.217Z,26.06
2022-08-03T09:58:14.360Z,26.08
2022-08-03T10:00:41.456Z,26.09
2022-08-03T10:03:08.569Z,26.08
2022-08-03T10:05:35.646Z,26.09
2022-08-03T10:08:02.704Z,26.09
2022-08-03T10:10:31.504Z,26.10
2022-08-03T10:12:59.446Z,26.11
2022-08-03T10:16:21.520Z,26.10
2022-08-03T10:18:13.639Z,26.11
2022-08-03T10:20:40.671Z,26.13
2022-08-03T10:23:07.757Z,26.12
2022-08-03T10:25:35.323Z,26.13
2022-08-03T10:28:04.335Z,26.13
2022-08-03T10:30:32.184Z,26.16
2022-08-03T10:32:59.233Z,26.19
2022-08-03T10:35:26.294Z,26.21
2022-08-03T10:37:57.102Z,26.20
2022-08-03T10:40:47.539Z,26.21
2022-08-03T10:43:11.537Z,26.21
2022-08-03T10:45:38.595Z,26.19
2022-08-03T10:48:05.645Z,26.20
2022-08-03T10:50:32.708Z,26.21
2022-08-03T10:53:03.770Z,26.20
2022-08-03T10:55:49.879Z,26.19
2022-08-03T10:58:30.304Z,26.20
2022-08-03T11:00:58.020Z,26.21
2022-08-03T11:03:25.203Z,26.21
2022-08-03T11:05:54.508Z,26.21
2022-08-03T11:08:21.591Z,26.21
2022-08-03T11:10:48.636Z,26.23
2022-08-03T11:13:16.911Z,26.24
2022-08-03T11:15:44.081Z,26.25
2022-08-03T11:18:11.519Z,26.26
2022-08-03T11:20:38.671Z,26.27
2022-08-03T11:23:06.712Z,26.28
2022-08-03T11:25:52.972Z,26.28
2022-08-03T11:28:20.817Z,26.29
2022-08-03T11:30:48.629Z,26.29
2022-08-03T11:33:15.678Z,26.30
2022-08-03T11:35:45.551Z,26.30
2022-08-03T11:38:12.682Z,26.30
2022-08-03T11:40:39.844Z,26.32
2022-08-03T11:43:07.292Z,26.33
2022-08-03T11:45:34.351Z,26.34
2022-08-03T11:48:01.395Z,26.35
2022-08-03T11:50:28.458Z,26.35
2022-08-03T11:52:55.590Z,26.36
2022-08-03T11:55:22.727Z,26.37
2022-08-03T11:59:19.212Z,26.39
2022-08-03T12:00:36.878Z,26.39
2022-08-03T12:03:04.100Z,26.39
2022-08-03T12:05:31.210Z,26.40
2022-08-03T12:08:04.100Z,26.42
2022-08-03T12:10:33.473Z,26.44
2022-08-03T12:13:00.515Z,26.45
2022-08-03T12:15:27.734Z,26.45
2022-08-03T12:17:57.847Z,26.45
2022-08-03T12:20:34.578Z,26.46
2022-08-03T12:23:02.379Z,26.45
2022-08-03T12:25:39.204Z,26.46
2022-08-03T12:28:07.048Z,26.47
2022-08-03T12:30:54.971Z,26.50
2022-08-03T12:33:22.226Z,26.49
2022-08-03T12:35:52.557Z,26.51
2022-08-03T12:38:21.371Z,26.52
2022-08-03T12:40:50.767Z,26.52
2022-08-03T12:43:17.816Z,26.53
2022-08-03T12:45:44.941Z,26.54
2022-08-03T12:48:12.052Z,26.56
2022-08-03T12:50:39.722Z,26.59
2022-08-03T12:53:07.971Z,26.61
2022-08-03T12:55:57.200Z,26.60
2022-08-03T12:58:23.445Z,26.61
2022-08-03T13:00:56.174Z,26.64
2022-08-03T13:03:39.037Z,26.63
2022-08-03T13:06:07.151Z,26.64
2022-08-03T13:08:34.204Z,26.64
2022-08-03T13:11:01.244Z,26.65
2022-08-03T13:13:28.283Z,26.66
2022-08-03T13:15:55.328Z,26.67
2022-08-03T13:18:22.383Z,26.66
2022-08-03T13:20:49.478Z,26.66
2022-08-03T13:23:22.656Z,26.66
2022-08-03T13:25:55.818Z,26.68
2022-08-03T13:28:23.222Z,26.66
2022-08-03T13:30:50.281Z,26.67
2022-08-03T13:33:17.383Z,26.67
2022-08-03T13:35:44.491Z,26.69
2022-08-03T13:38:11.697Z,26.69
2022-08-03T13:40:42.165Z,26.70
2022-08-03T13:43:09.436Z,26.72
2022-08-03T13:45:36.482Z,26.73
2022-08-03T13:48:03.557Z,26.74
2022-08-03T13:50:31.418Z,26.75
2022-08-03T13:52:58.557Z,26.75
2022-08-03T13:55:25.632Z,26.76
2022-08-03T13:58:12.000Z,26.78
2022-08-03T14:00:39.925Z,26.79
2022-08-03T14:03:13.876Z,26.79
2022-08-03T14:05:43.052Z,26.81
2022-08-03T14:08:10.203Z,26.83
2022-08-03T14:10:37.438Z,26.84
2022-08-03T14:13:04.721Z,26.85
2022-08-03T14:15:31.864Z,26.87
2022-08-03T14:18:04.471Z,26.87
2022-08-03T14:20:38.683Z,26.90
2022-08-03T14:23:14.708Z,26.91
2022-08-03T14:25:43.415Z,26.94
2022-08-03T14:28:17.852Z,26.96
2022-08-03T14:30:44.902Z,26.99
2022-08-03T14:33:11.943Z,27.01
2022-08-03T14:35:39.007Z,27.01
2022-08-03T14:38:06.171Z,27.03
2022-08-03T14:40:33.306Z,27.05
2022-08-03T14:43:00.358Z,27.07
2022-08-03T14:45:27.690Z,27.08
2022-08-03T14:50:32.848Z,27.10
2022-08-03T14:50:46.748Z,27.13
2022-08-03T14:53:17.720Z,27.15
2022-08-03T14:55:49.702Z,27.15
2022-08-03T14:58:19.654Z,27.16
2022-08-03T15:00:48.772Z,27.19
2022-08-03T15:03:17.388Z,27.20
2022-08-03T15:05:46.000Z,27.21
2022-08-03T15:08:13.063Z,27.23
2022-08-03T15:10:44.469Z,27.24
2022-08-03T15:13:12.753Z,27.25
2022-08-03T15:15:39.822Z,27.28
2022-08-03T15:18:06.891Z,27.28
2022-08-03T15:20:44.253Z,27.31
2022-08-03T15:23:12.425Z,27.34
2022-08-03T15:26:28.009Z,27.36
2022-08-03T15:28:26.570Z,27.37
2022-08-03T15:30:53.838Z,27.40
2022-08-03T15:33:20.906Z,27.40
2022-08-03T15:35:48.060Z,27.41
2022-08-03T15:38:15.161Z,27.39
2022-08-03T15:40:45.437Z,27.41
2022-08-03T15:43:12.539Z,27.43
2022-08-03T15:45:41.863Z,27.43
2022-08-03T15:48:09.170Z,27.45
2022-08-03T15:50:36.331Z,27.48
2022-08-03T15:53:05.036Z,27.48
2022-08-03T15:55:32.216Z,27.50
2022-08-03T15:59:03.265Z,27.47
2022-08-03T16:00:46.558Z,27.49
2022-08-03T16:03:13.676Z,27.48
2022-08-03T16:05:40.787Z,27.48
2022-08-03T16:08:13.350Z,27.45
2022-08-03T16:10:40.947Z,27.48
2022-08-03T16:13:08.023Z,27.50
2022-08-03T16:15:38.341Z,27.48
2022-08-03T16:18:05.993Z,27.50
2022-08-03T16:20:35.043Z,27.43
2022-08-03T16:23:09.109Z,27.33
2022-08-03T16:25:38.809Z,27.28
2022-08-03T16:28:13.747Z,27.27
2022-08-03T16:30:41.207Z,27.35
2022-08-03T16:33:08.375Z,27.35
2022-08-03T16:35:35.464Z,27.37
2022-08-03T16:38:06.501Z,27.38
2022-08-03T16:40:36.534Z,27.26
2022-08-03T16:43:03.620Z,27.20
2022-08-03T16:45:30.697Z,27.18
2022-08-03T16:48:01.454Z,27.16
2022-08-03T16:50:32.571Z,27.14
2022-08-03T16:52:59.701Z,27.10
2022-08-03T16:55:43.324Z,27.09
2022-08-03T16:58:16.490Z,27.07
2022-08-03T17:00:44.382Z,27.05
2022-08-03T17:03:20.546Z,27.02
2022-08-03T17:05:51.261Z,27.01
2022-08-03T17:08:26.699Z,26.99
2022-08-03T17:10:54.474Z,26.98
2022-08-03T17:13:23.001Z,26.98
2022-08-03T17:16:06.688Z,26.97
2022-08-03T17:18:35.059Z,26.93
2022-08-03T17:21:03.348Z,26.91
2022-08-03T17:23:34.877Z,26.90
2022-08-03T17:26:04.200Z,26.88
2022-08-03T17:28:51.174Z,26.87
2022-08-03T17:31:23.209Z,26.85
2022-08-03T17:33:58.142Z,26.81
2022-08-03T17:36:41.815Z,26.81
2022-08-03T17:39:14.517Z,26.80
2022-08-03T17:41:48.949Z,26.78
2022-08-03T17:44:31.171Z,26.76
2022-08-03T17:47:04.477Z,26.74
2022-08-03T17:49:40.022Z,26.73
2022-08-03T17:52:17.362Z,26.72
2022-08-03T17:55:56.224Z,26.83
2022-08-03T17:57:31.853Z,26.87
2022-08-03T18:00:43.328Z,26.90
2022-08-03T18:03:20.552Z,26.91
2022-08-03T18:06:11.748Z,26.92
2022-08-03T18:08:36.548Z,26.92
2022-08-03T18:11:14.398Z,26.92
2022-08-03T18:13:42.174Z,26.92
2022-08-03T18:16:20.563Z,26.92
2022-08-03T18:18:53.996Z,26.92
2022-08-03T18:21:21.916Z,26.95
2022-08-03T18:23:50.107Z,26.95
2022-08-03T18:26:18.107Z,26.97
2022-08-03T18:28:45.189Z,26.84
2022-08-03T18:31:59.789Z,26.78
2022-08-03T18:34:33.075Z,26.75
2022-08-03T18:36:47.661Z,26.72
2022-08-03T18:39:15.232Z,26.70
2022-08-03T18:41:46.514Z,26.68
2022-08-03T18:44:52.553Z,26.64
2022-08-03T18:47:07.092Z,26.64
2022-08-03T18:49:38.145Z,26.61
2022-08-03T18:52:12.223Z,26.59
2022-08-03T18:54:46.681Z,26.58
2022-08-03T18:57:30.281Z,26.57
2022-08-03T19:00:02.326Z,26.55
2022-08-03T19:02:29.921Z,26.54
2022-08-03T19:04:58.315Z,26.53
2022-08-03T19:07:28.823Z,26.51
2022-08-03T19:10:03.793Z,26.50
2022-08-03T19:12:37.402Z,26.48
2022-08-03T19:15:10.448Z,26.56
2022-08-03T19:17:39.965Z,26.61
2022-08-03T19:20:09.045Z,26.64
2022-08-03T19:22:39.974Z,26.67
2022-08-03T19:25:13.238Z,26.55
2022-08-03T19:27:40.445Z,26.52
2022-08-03T19:30:21.939Z,26.49
2022-08-03T19:32:53.400Z,26.48
2022-08-03T19:35:51.283Z,26.46
2022-08-03T19:38:07.689Z,26.44
2022-08-03T19:40:35.423Z,26.43
2022-08-03T19:43:02.594Z,26.42
2022-08-03T19:46:05.473Z,26.40
2022-08-03T19:48:26.439Z,26.38
2022-08-03T19:50:54.442Z,26.37
2022-08-03T19:53:21.649Z,26.37
2022-08-03T19:55:50.174Z,26.34
2022-08-03T19:58:17.701Z,26.32
2022-08-03T20:00:55.936Z,26.31
2022-08-03T20:03:24.869Z,26.30
2022-08-03T20:05:54.176Z,26.34
2022-08-03T20:08:22.199Z,26.44
2022-08-03T20:10:49.638Z,26.47
2022-08-03T20:13:19.396Z,26.48
2022-08-03T20:15:46.799Z,26.49
2022-08-03T20:18:16.573Z,26.50
2022-08-03T20:20:44.179Z,26.52
2022-08-03T20:23:13.996Z,26.52
2022-08-03T20:25:48.680Z,26.53
2022-08-03T20:28:26.623Z,26.43
2022-08-03T20:30:53.971Z,26.38
2022-08-03T20:33:27.981Z,26.36
2022-08-03T20:36:08.260Z,26.32
2022-08-03T20:38:43.728Z,26.30
2022-08-03T20:41:14.187Z,26.29
2022-08-03T20:43:41.793Z,26.27
2022-08-03T20:46:30.861Z,26.24
2022-08-03T20:48:56.073Z,26.23
2022-08-03T20:51:50.051Z,26.22
2022-08-03T20:54:28.974Z,26.21
2022-08-03T20:56:57.261Z,26.19
2022-08-03T20:59:36.578Z,26.18
2022-08-03T21:02:05.891Z,26.16
2022-08-03T21:04:32.977Z,26.15
2022-08-03T21:07:01.039Z,26.14
2022-08-03T21:09:39.714Z,26.14
2022-08-03T21:12:07.745Z,26.12
2022-08-03T21:14:35.638Z,26.12
2022-08-03T21:17:09.383Z,26.11
2022-08-03T21:19:51.854Z,26.09
2022-08-03T21:22:19.612Z,26.09
2022-08-03T21:24:49.412Z,26.09
2022-08-03T21:27:19.980Z,26.07
2022-08-03T21:29:53.220Z,26.07
2022-08-03T21:32:32.911Z,26.07
2022-08-03T21:35:00.425Z,26.03
2022-08-03T21:37:27.473Z,26.03
2022-08-03T21:39:54.666Z,26.03
2022-08-03T21:42:23.822Z,26.01
2022-08-03T21:44:51.264Z,26.01
2022-08-03T21:47:18.408Z,26.00
2022-08-03T21:50:05.846Z,26.00
2022-08-03T21:52:32.579Z,25.98
2022-08-03T21:54:59.630Z,25.98
2022-08-03T21:57:26.728Z,25.97
2022-08-03T21:59:54.053Z,25.95
2022-08-03T22:02:24.186Z,25.95
2022-08-03T22:04:57.188Z,25.96
2022-08-03T22:07:24.635Z,25.94
2022-08-03T22:09:52.236Z,25.93
2022-08-03T22:12:19.381Z,25.91
2022-08-03T22:14:46.433Z,25.92
2022-08-03T22:17:13.824Z,25.91
2022-08-03T22:20:00.928Z,25.90
2022-08-03T22:22:28.484Z,25.90
2022-08-03T22:24:55.555Z,25.88
2022-08-03T22:27:32.223Z,25.89
2022-08-03T22:29:59.311Z,25.86
2022-08-03T22:32:26.974Z,25.85
2022-08-03T22:34:54.132Z,25.85
2022-08-03T22:37:21.450Z,25.84
2022-08-03T22:39:49.243Z,25.85
2022-08-03T22:42:16.380Z,25.84
2022-08-03T22:44:43.451Z,25.83
2022-08-03T22:47:10.543Z,25.82
2022-08-03T22:49:37.700Z,25.82
2022-08-03T22:52:04.806Z,25.82
2022-08-03T22:54:31.867Z,25.82
2022-08-03T22:56:58.944Z,25.80
2022-08-03T22:59:40.544Z,25.80
2022-08-03T23:02:20.600Z,25.78
2022-08-03T23:04:48.514Z,25.79
2022-08-03T23:07:15.703Z,25.78
2022-08-03T23:09:42.751Z,25.78
2022-08-03T23:12:09.795Z,25.76
2022-08-03T23:14:36.847Z,25.76
2022-08-03T23:17:03.937Z,25.76
2022-08-03T23:19:34.360Z,25.76
2022-08-03T23:22:29.293Z,25.74
2022-08-03T23:24:55.807Z,25.72
2022-08-03T23:27:23.058Z,25.73
2022-08-03T23:29:50.329Z,25.72
2022-08-03T23:32:17.378Z,25.71
2022-08-03T23:35:03.450Z,25.71
2022-08-03T23:37:30.497Z,25.69
2022-08-03T23:39:57.548Z,25.68
2022-08-03T23:42:24.607Z,25.67
2022-08-03T23:44:51.661Z,25.68
2022-08-03T23:47:18.737Z,25.66
2022-08-03T23:49:45.800Z,25.65
2022-08-03T23:52:12.855Z,25.66
2022-08-03T23:54:39.948Z,25.64
2022-08-03T23:57:07.010Z,25.65
2022-08-03T23:59:34.063Z,25.64
